航空気象通報

ウインドサーファーのための航空気象通報による風予報です。

5/31-6/2の航空気象通報

2014年05月31日 22時03分34秒 | TAF

羽田空港
TAF RJTT 311105Z 3112/0118 19010KT 7000 FEW020
BECMG 3116/3118 03004KT
TEMPO 3118/3124 4000 BR
BECMG 0100/0103 19012KT
日本時間31日21時-1日01時:190度から10ノットの風
01-03時:風が変化
03-09時:030度から4ノットの風
09-12時:風が変化
12時-2日03時:190度から12ノットの風

但し、1日00-09時の間:ときどき、もや

静岡空港
TAF RJNS 311105Z 3112/0118 28004KT 6000 FEW010
TEMPO 3115/3122 3000 BR
BECMG 3122/3124 15006KT
BECMG 0112/0115 26004KT
TEMPO 0115/0118 4000 BR
日本時間31日21時-1日07時:280度から4ノットの風
07-09時:風が変化
09-21時:150度から6ノットの風
21-24時:風が変化
2日00-03時:260度から4ノットの風

但し、1日00-07時の間:ときどき、もや
但し、2日00-03時の間:ときどき、もや

福岡空港
TAF RJFF 311110Z 3112/0118 35003KT CAVOK
BECMG 3112/3114 14007KT
BECMG 0100/0103 32008KT
BECMG 0112/0115 14005KT
日本時間31日21時:350度から3ノットの風
21-23時:風が変化
23時-1日09時:140度から7ノットの風
09-12時:風が変化
12-21時:320度から8ノットの風
21-24時:風が変化
1日00-03時:140度から5ノットの風

那覇空港
TAF ROAH 311107Z 3112/0118 08008KT 9999 FEW020 SCT030
BECMG 0106/0109 10012KT
日本時間31日21時-1日15時:080度から8ノットの風
09-12時:風が変化
12時-2日03時:100度から12ノットの風

石垣空港
TAF ROIG 311111Z 3112/0118 08012KT 9999 SCT010 BKN020
BECMG 0115/0118 16005KT
日本時間31日21時-1日24時:080度から12ノットの風
2日00-03時:風が変化
03時:160度から5ノットの風

マウイのカフルイ空港
PHOG 311120Z 3112/0112 05008KT P6SM SCT030 BKN050
FM312000 06015G25KT P6SM SCT030 BKN050
FM011000 05008KT P6SM SCT030 BKN050 AMD LTD TO WX VIS AND WIND TIL 311600
ハワイ時間31日02-10時:050度から8ノットの風
10-24時:060度から15ノット、突風25ノット
1日00-02時:050度から8ノットの風

サイパン空港
PGSN 311120Z 3112/0112 09010KT P6SM VCSH SCT020 SCT040
マリアナ時間31日22時-1日22時:090度から10ノットの風

コメント

5/30-6/1の航空気象通報

2014年05月30日 21時11分56秒 | TAF
羽田空港
TAF RJTT 301105Z 3012/3118 20012KT 8000 FEW030
BECMG 3016/3018 27004KT
TEMPO 3018/3021 4000 BR
BECMG 3021/3023 18012KT
日本時間30日21時-31日01時:200度から12ノットの風
01-03時:風が変化
03-06時:270度から4ノットの風
06時-1日03時:180度から12ノットの風


静岡空港
TAF RJNS 301105Z 3012/3118 26006KT 6000 FEW005 BKN012
BECMG 3012/3014 4000 BR
TEMPO 3015/3021 3000 BR FEW005 BKN008
BECMG 3022/3024 16006KT 9999 NSW
BECMG 3109/3112 25004KT
TEMPO 3115/3118 4000 BR
日本時間30日21時-31日07時:260度から6ノットの風
07-09時:風が変化
09-18時:160度から6ノットの風
18-21時:風が変化
21時-1日03時:250度から4ノットの風


福岡空港
TAF RJFF 301111Z 3012/3118 04003KT CAVOK
BECMG 3012/3014 14006KT
BECMG 3100/3103 32008KT
BECMG 3112/3115 14005KT
日本時間30日21時:040度から3ノットの風
21-23時:風が変化
23時-31日09時:140度から6ノットの風
09-12時:風が変化
12-21時:320度から8ノットの風
21-24時:風が変化
1日00-03時:140度から5ノットの風


那覇空港
TAF ROAH 301106Z 3012/3118 08008KT 9999 FEW020 SCT040
日本時間30日21時-1日03時:080度から8ノットの風


石垣空港
TAF ROIG 301108Z 3012/3118 08012KT 9999 FEW015 BKN035
日本時間30日21時-1日03時:080度から12ノットの風


マウイのカフルイ空港
PHOG 301127Z 3012/3112 05009KT P6SM VCSH FEW030 BKN050
FM302000 04018G26KT P6SM FEW030 SCT050
FM310400 05009KT P6SM FEW030 SCT050 AMD LTD TO WX VIS AND WIND TIL 301600
ハワイ時間30日02-10時:050度から9ノットの風

10-18時:040度から18ノット、突風26ノット
18時-31日02時:050度から9ノットの風


サイパン空港
PGSN 301123Z 3012/3112 08011KT P6SM VCSH SCT020 SCT040
マリアナ時間30日22時-31日22時:080度から11ノットの風
コメント

5/29-5/31の航空気象通報

2014年05月29日 23時34分32秒 | TAF

羽田空港
TAF RJTT 291106Z 2912/3018 19010KT 8000 FEW030
BECMG 2915/2917 33004KT
BECMG 2922/2924 18012KT
日本時間29日21-24時:190度から10ノットの風
30日00-02時:風が変化
02-07時:330度から4ノットの風
07-09時:風が変化
09時-31日03時:180度から12ノットの風

静岡空港
TAF RJNS 291107Z 2912/3018 26006KT 8000 FEW015
TEMPO 2920/2923 4000 BR FEW005 BKN008
TEMPO 3015/3018 3000 BR FEW003 BKN005
日本時間29日21時-31日03時:260度から6ノットの風

但し、30日05-08時の間:ときどき
但し、31日00-03時の間:ときどき

福岡空港
TAF RJFF 291111Z 2912/3018 13004KT 9000 NSC
BECMG 3000/3003 32011KT
BECMG 3009/3012 14003KT
日本時間29日21時-30日09時:130度から4ノットの風
09-12時:風が変化
12-18時:320度から11ノットの風
18-21時:風が変化
21時-31日03時:140度から3ノットの風

那覇空港
TAF ROAH 291109Z 2912/3018 11006KT 9999 FEW025
BECMG 2922/2924 08008KT
日本時間29日21時-30日07時:110度から6ノットの風
07-09時:風が変化
09時-31日03時:080度から8ノットの風

石垣空港
TAF ROIG 291112Z 2912/3018 10008KT 9999 FEW015 SCT035
TEMPO 3000/3009 4000 SHRA SCT007 BKN010 FEW025CB
日本時間29日21時-31日03時:100度から8ノットの風

但し、30日09-18時の間:ときどき

マウイのカフルイ空港
PHOG 291120Z 2912/3012 05010KT P6SM VCSH SCT050
FM291900 05018G28KT P6SM SCT050
FM300600 05010KT P6SM VCSH SCT050 AMD LTD TO WX VIS AND WIND TIL 291600
ハワイ時間29日02-09時:050度から10ノットの風
10-20時:050度から18ノット、突風28ノット
20時-30日02時:050度から10ノットの風

サイパン空港
PGSN 291136Z 2912/3012 09012KT P6SM VCSH SCT020 SCT050 BKN100
マリアナ時間29日22時-30日22時:090度から12ノットの風

コメント

5/28-5/30の航空気象通報

2014年05月28日 23時19分26秒 | TAF

羽田空港
TAF RJTT 281105Z 2812/2918 19012KT 9999 FEW030
TEMPO 2903/2906 TS FEW010 BKN020 FEW020CB
日本時間28日21時-30日03時:190度から12ノットの風

但し、29日12-15時の間:ときどき

静岡空港
TAF AMD RJNS 281231Z 2812/2918 26004KT 2000 BR FEW005 BKN015
TEMPO 2815/2821 0800 FG FEW002 BKN005
BECMG 2821/2823 9999 NSW
日本時間28日21時-30日03時:260度から4ノットの風

福岡空港
TAF RJFF 281107Z 2812/2918 15008KT 9000 FEW040
BECMG 2900/2903 32008KT
BECMG 2909/2912 16005KT
日本時間28日21時-29日09時:150度から8ノットの風
09-12時:風が変化
12-18時:320度から8ノットの風
18-21時:風が変化
21時-30日03時:160度から5ノットの風

那覇空港
TAF AMD ROAH 281240Z 2812/2918 11005KT 9999 FEW015
BECMG 2814/2816 08006KT
日本時間28日21-23時:110度から5ノットの風
23時-29日01時:風が変化
01時-30日03時:080度から6ノットの風

石垣空港
TAF ROIG 281107Z 2812/2918 04006KT 9999 FEW015 SCT040
日本時間28日21時-30日03時:040度から6ノットの風

マウイのカフルイ空港
PHOG 281128Z 2812/2912 05010KT P6SM FEW030 SCT060
FM281900 05014G24KT P6SM FEW035 SCT060
FM290000 05018G28KT P6SM FEW035 SCT060
FM290500 05011KT P6SM FEW035 SCT060 AMD LTD TO WX VIS AND WIND TIL 281600
ハワイ時間28日02-09時:050度から10ノットの風
10-14時:050度から14ノット、突風24ノット
14-19時:050度から18ノット、突風28ノット
19時-29日02時:050度から11ノットの風

サイパン空港
PGSN 281120Z 2812/2912 08011KT P6SM VCSH SCT020 SCT040
マリアナ時間28日22時-29日22時:080度から11ノットの風

コメント

5/24-5/26の航空気象通報

2014年05月24日 23時20分32秒 | TAF

羽田空港
TAF RJTT 241107Z 2412/2518 21014KT 9999 FEW030
日本時間24日21時-26日03時:210度から14ノットの風

静岡空港
TAF RJNS 241105Z 2412/2518 25012KT 9999 FEW010 BKN015
TEMPO 2515/2518 4000 BR FEW004 BKN008
日本時間24日21時-26日03時:250度から12ノットの風

福岡空港
TAF RJFF 241112Z 2412/2518 15005KT CAVOK
BECMG 2512/2515 16015KT
日本時間24日21時-25日21時:150度から5ノットの風
21-24時:風が変化
26日00-03時:160度から15ノットの風

那覇空港
TAF ROAH 241117Z 2412/2518 13010KT 9999 FEW020
日本時間24日21時-26日03時:130度から10ノットの風

石垣空港
TAF ROIG 241110Z 2412/2518 14010KT 9999 FEW010 BKN030
TEMPO 2412/2413 12010KT
日本時間24日21時-26日03時:140度から10ノットの風
但し、24日21-22時の間:ときどき120度から10ノットの風

マウイのカフルイ空港
PHOG 241121Z 2412/2512 VRB05KT P6SM FEW025 SCT050
FM242000 02011KT P6SM FEW025 SCT050
FM250500 05004KT P6SM FEW025 SCT050 AMD LTD TO WX VIS AND WIND TIL 241600
ハワイ時間24日02-10時:風向不定5ノットの風
10-19時:020度から11ノットの風
19時-25日02時:050度から4ノットの風

サイパン空港
PGSN 241121Z 2412/2512 08006KT P6SM VCSH FEW022 SCT120
FM242300 09011G17KT P6SM VCSH SCT020 BKN120
FM250900 10006KT P6SM VCSH FEW020 BKN120
マリアナ時間24日22時-25日09時:080度から6ノットの風

09-19時:090度から11ノット、突風17ノット
19-22時:100度から6ノットの風

コメント